Time;durP1;ratioP1;P1;durP2;ratioP2;P2;SDS_P1;SDS_P2;PMS_P1;PMS_P2;Temp;Humidity;BMP_temperature;BMP_pressure;BME280_temperature;BME280_humidity;BME280_pressure;Samples;Min_cycle;Max_cycle;Signal;HPM_P1;HPM_P2
2022/08/01 00:01:25;;;;;;;5.65;2.60;;;;;;;26.83;40.56;100849.75;5029551;28;98945;-69
2022/08/01 00:03:51;;;;;;;3.67;2.75;;;;;;;26.78;40.99;100849.34;5029717;27;97770;-71
2022/08/01 00:06:18;;;;;;;3.58;3.00;;;;;;;26.56;41.34;100849.84;5024399;27;97164;-70
2022/08/01 00:08:45;;;;;;;5.82;2.88;;;;;;;26.44;41.72;100860.06;5030913;27;97421;-71
2022/08/01 00:11:12;;;;;;;4.30;2.35;;;;;;;26.27;42.17;100855.44;5031988;27;99364;-71
2022/08/01 00:13:40;;;;;;;5.38;2.75;;;;;;;26.67;41.74;100868.56;5032993;27;99510;-70
2022/08/01 00:16:06;;;;;;;4.85;2.72;;;;;;;26.36;42.61;100865.38;5033787;27;96792;-71
2022/08/01 00:18:32;;;;;;;3.95;2.60;;;;;;;26.04;43.48;100862.28;5030933;28;98618;-70
2022/08/01 00:20:59;;;;;;;2.75;2.40;;;;;;;25.87;44.68;100866.63;5030653;27;99023;-70
2022/08/01 00:23:25;;;;;;;4.40;2.80;;;;;;;26.11;43.84;100860.66;5032244;28;98793;-70
2022/08/01 00:25:51;;;;;;;4.53;3.00;;;;;;;26.57;43.14;100860.53;5034006;27;96882;-70
2022/08/01 00:28:17;;;;;;;3.42;2.30;;;;;;;26.48;43.64;100856.03;5030526;27;97281;-70
2022/08/01 00:30:45;;;;;;;4.70;3.13;;;;;;;26.72;42.84;100854.53;5032499;27;99329;-70
2022/08/01 00:33:11;;;;;;;3.03;2.83;;;;;;;26.36;44.30;100859.97;5030566;28;98830;-71
2022/08/01 00:35:38;;;;;;;3.38;2.67;;;;;;;26.16;44.63;100863.75;5028364;27;96868;-71
2022/08/01 00:38:04;;;;;;;4.28;2.88;;;;;;;25.85;45.99;100871.34;5029187;28;97668;-70
2022/08/01 00:40:30;;;;;;;4.32;2.95;;;;;;;25.90;46.36;100868.19;5033375;28;99295;-70
2022/08/01 00:42:57;;;;;;;4.00;3.13;;;;;;;26.29;45.10;100863.44;5028061;28;98130;-70
2022/08/01 00:45:23;;;;;;;5.80;3.28;;;;;;;25.98;46.58;100854.75;5033090;28;97347;-70
2022/08/01 00:47:51;;;;;;;6.85;2.72;;;;;;;25.98;46.90;100860.16;5032113;27;97159;-70
2022/08/01 00:50:18;;;;;;;3.65;3.10;;;;;;;26.22;46.44;100865.88;5032595;27;99121;-70
2022/08/01 00:52:45;;;;;;;3.35;2.88;;;;;;;26.04;47.23;100859.56;5030013;28;98838;-70
2022/08/01 00:55:13;;;;;;;4.30;2.90;;;;;;;25.99;47.55;100856.47;5033944;27;97259;-70
2022/08/01 00:57:40;;;;;;;4.80;3.20;;;;;;;26.16;47.59;100863.75;5033540;27;96830;-70
2022/08/01 01:00:08;;;;;;;3.92;2.83;;;;;;;26.33;47.05;100845.84;5032965;27;99072;-70
2022/08/01 01:02:34;;;;;;;3.15;2.80;;;;;;;26.20;47.57;100852.47;5029652;27;101166;-70
2022/08/01 01:05:02;;;;;;;4.72;2.67;;;;;;;25.98;48.35;100846.63;5030243;28;96717;-70
2022/08/01 01:07:37;;;;;;;8.13;3.50;;;;;;;25.83;49.04;100848.97;5029916;27;98832;-71
2022/08/01 01:10:09;;;;;;;3.90;2.78;;;;;;;25.79;49.27;100848.44;5031986;27;98851;-70
2022/08/01 01:12:45;;;;;;;3.60;2.67;;;;;;;25.71;49.62;100848.34;5028806;28;98835;-70
2022/08/01 01:15:17;;;;;;;4.45;2.58;;;;;;;25.82;49.19;100846.41;5032456;28;96665;-70
2022/08/01 01:17:49;;;;;;;4.13;3.17;;;;;;;25.90;48.85;100847.38;5027823;27;97589;-71
2022/08/01 01:20:18;;;;;;;3.17;2.85;;;;;;;26.12;48.22;100846.13;5030718;28;99606;-70
2022/08/01 01:23:00;;;;;;;3.55;3.20;;;;;;;26.11;47.87;100849.84;5029396;28;97543;-71
2022/08/01 01:25:41;;;;;;;6.63;3.13;;;;;;;26.03;48.06;100845.19;5029628;28;96785;-71
2022/08/01 01:28:13;;;;;;;5.30;2.80;;;;;;;26.04;47.93;100841.47;5030688;28;96793;-70
2022/08/01 01:30:43;;;;;;;4.43;2.92;;;;;;;25.94;48.58;100845.22;5031554;28;99035;-71
2022/08/01 01:33:12;;;;;;;4.82;2.40;;;;;;;25.95;48.46;100834.25;5030740;27;101801;-70
2022/08/01 01:35:45;;;;;;;4.40;2.65;;;;;;;26.03;48.36;100838.91;5030425;27;96827;-70
2022/08/01 01:38:18;;;;;;;4.22;2.92;;;;;;;25.77;49.17;100841.47;5029975;28;97613;-70
2022/08/01 01:40:46;;;;;;;3.80;2.83;;;;;;;25.77;48.86;100830.63;5029564;27;99568;-70
2022/08/01 01:43:14;;;;;;;3.88;2.88;;;;;;;25.96;48.18;100832.38;5032135;28;98771;-71
2022/08/01 01:45:45;;;;;;;4.03;3.10;;;;;;;26.22;47.79;100829.81;5031820;27;97173;-71
2022/08/01 01:48:14;;;;;;;4.85;2.92;;;;;;;26.15;47.82;100833.13;5031479;28;96911;-71
2022/08/01 01:50:43;;;;;;;6.40;2.72;;;;;;;26.15;47.52;100840.38;5030556;27;99134;-72
2022/08/01 01:53:10;;;;;;;5.45;2.95;;;;;;;26.08;47.56;100834.72;5032154;27;99135;-70
2022/08/01 01:55:39;;;;;;;3.05;2.70;;;;;;;25.67;48.51;100836.09;5030431;27;97229;-70
2022/08/01 01:58:08;;;;;;;4.53;2.90;;;;;;;25.59;48.74;100835.16;5030148;27;97240;-70
2022/08/01 02:00:36;;;;;;;3.22;2.92;;;;;;;25.60;48.52;100829.56;5031064;28;99304;-70
2022/08/01 02:03:08;;;;;;;5.53;3.00;;;;;;;25.44;49.57;100829.31;5035960;27;98275;-70
2022/08/01 02:05:36;;;;;;;5.07;2.80;;;;;;;25.60;49.24;100834.16;5029614;28;96791;-70
2022/08/01 02:08:04;;;;;;;4.95;3.38;;;;;;;25.49;49.49;100837.00;5024200;28;96944;-70
2022/08/01 02:10:32;;;;;;;3.75;3.38;;;;;;;25.57;49.65;100835.28;5029396;28;99477;-69
2022/08/01 02:13:02;;;;;;;4.60;2.85;;;;;;;25.40;50.04;100839.56;5031001;27;99184;-70
2022/08/01 02:15:32;;;;;;;2.88;2.67;;;;;;;25.47;49.59;100845.25;5032332;27;98255;-70
2022/08/01 02:18:00;;;;;;;5.95;2.90;;;;;;;25.37;50.17;100842.59;5027426;27;96904;-70
2022/08/01 02:20:31;;;;;;;4.82;3.15;;;;;;;25.30;50.46;100837.91;5028945;28;102932;-70
2022/08/01 02:23:05;;;;;;;3.75;2.78;;;;;;;25.06;51.26;100832.13;5030233;27;98956;-69
2022/08/01 02:25:37;;;;;;;4.05;3.00;;;;;;;25.14;51.07;100848.50;5031262;28;96725;-69
2022/08/01 02:28:07;;;;;;;3.78;3.05;;;;;;;25.06;51.07;100840.25;5027208;28;96891;-70
2022/08/01 02:30:37;;;;;;;3.65;2.83;;;;;;;25.27;50.76;100849.84;5024432;28;99410;-69
2022/08/01 02:33:06;;;;;;;4.90;2.90;;;;;;;25.13;51.00;100847.66;5028107;28;99148;-69
2022/08/01 02:35:38;;;;;;;9.35;3.25;;;;;;;25.07;51.38;100842.81;5029984;28;96784;-70
2022/08/01 02:38:07;;;;;;;4.03;2.92;;;;;;;25.19;51.19;100848.91;5026961;28;97223;-70
2022/08/01 02:40:38;;;;;;;3.50;3.17;;;;;;;25.14;51.41;100841.22;5028601;28;99318;-70
2022/08/01 02:43:06;;;;;;;3.00;2.80;;;;;;;25.16;51.78;100846.47;5029836;28;99139;-70
2022/08/01 02:45:36;;;;;;;4.65;3.03;;;;;;;25.25;51.47;100843.75;5025801;27;96793;-70
2022/08/01 02:48:06;;;;;;;3.53;2.88;;;;;;;25.47;51.19;100839.84;5030735;27;97210;-69
2022/08/01 02:50:36;;;;;;;3.58;2.97;;;;;;;25.36;51.37;100835.47;5030243;27;99217;-70
2022/08/01 02:53:04;;;;;;;5.65;3.63;;;;;;;25.30;51.45;100837.91;5028704;27;101374;-71
2022/08/01 02:55:33;;;;;;;4.53;3.33;;;;;;;25.05;51.99;100836.69;5030772;28;96789;-70
2022/08/01 02:58:01;;;;;;;4.53;3.53;;;;;;;25.17;51.72;100837.38;5029176;28;96885;-70
2022/08/01 03:00:30;;;;;;;3.33;2.78;;;;;;;25.28;51.16;100840.75;5022142;28;98954;-70
2022/08/01 03:02:58;;;;;;;5.38;3.40;;;;;;;25.14;51.67;100835.81;5029360;27;99758;-70
2022/08/01 03:05:26;;;;;;;2.85;2.65;;;;;;;25.28;51.42;100840.75;5026594;28;97099;-69
2022/08/01 03:07:56;;;;;;;4.20;3.20;;;;;;;25.18;51.34;100844.50;5028898;28;96855;-70
2022/08/01 03:10:25;;;;;;;3.55;3.25;;;;;;;25.26;51.44;100844.63;5030253;28;98861;-71
2022/08/01 03:12:52;;;;;;;7.82;3.40;;;;;;;25.38;51.08;100838.03;5025309;28;99322;-71
2022/08/01 03:15:20;;;;;;;4.20;3.50;;;;;;;25.18;51.77;100844.50;5030496;27;96691;-70
2022/08/01 03:17:49;;;;;;;5.05;3.75;;;;;;;24.91;52.29;100837.13;5029152;27;96857;-69
2022/08/01 03:20:17;;;;;;;4.20;3.10;;;;;;;25.02;51.86;100837.81;5037639;27;101748;-70
2022/08/01 03:22:45;;;;;;;5.25;3.58;;;;;;;24.82;52.69;100841.50;5024220;27;97754;-70
2022/08/01 03:25:16;;;;;;;5.78;4.10;;;;;;;25.02;52.02;100850.47;5030203;28;96919;-71
2022/08/01 03:27:44;;;;;;;4.18;3.30;;;;;;;24.59;53.77;100842.81;5022753;28;96894;-71
2022/08/01 03:30:12;;;;;;;4.20;3.58;;;;;;;24.54;54.06;100851.34;5035052;27;98922;-70
2022/08/01 03:32:39;;;;;;;4.43;3.25;;;;;;;23.96;55.85;100847.66;5028728;27;98814;-71
2022/08/01 03:35:06;;;;;;;4.00;3.35;;;;;;;24.44;54.71;100850.47;5030328;27;97421;-71
2022/08/01 03:37:37;;;;;;;4.50;3.70;;;;;;;24.68;53.90;100851.94;5021936;28;97287;-72
2022/08/01 03:40:09;;;;;;;5.28;3.55;;;;;;;24.81;53.38;100864.13;5027138;28;98946;-70
2022/08/01 03:42:42;;;;;;;4.47;2.88;;;;;;;24.85;53.39;100854.75;5032482;27;97523;-71
2022/08/01 03:45:12;;;;;;;8.23;3.25;;;;;;;25.04;52.87;100853.06;5035943;27;96841;-70
2022/08/01 03:47:43;;;;;;;5.93;3.20;;;;;;;25.01;52.78;100856.88;5030358;27;97237;-70
2022/08/01 03:50:12;;;;;;;3.53;3.03;;;;;;;25.07;52.31;100863.59;5030141;27;99209;-70
2022/08/01 03:52:42;;;;;;;5.03;3.45;;;;;;;25.01;52.32;100863.16;5032192;27;99014;-70
2022/08/01 03:55:12;;;;;;;6.40;3.13;;;;;;;24.78;53.44;100859.03;5034533;28;96718;-71
2022/08/01 03:57:40;;;;;;;4.05;3.38;;;;;;;24.99;52.80;100859.75;5032976;27;97020;-70
2022/08/01 04:00:08;;;;;;;4.85;3.55;;;;;;;25.07;52.83;100858.19;5036744;27;99176;-70
2022/08/01 04:02:35;;;;;;;3.38;3.08;;;;;;;24.99;52.73;100859.75;5027447;27;99243;-71
2022/08/01 04:05:03;;;;;;;4.75;3.60;;;;;;;24.86;53.42;100861.00;5031775;27;96772;-70
2022/08/01 04:07:31;;;;;;;5.20;3.80;;;;;;;24.91;53.58;100867.72;5032319;27;96904;-70
2022/08/01 04:09:58;;;;;;;7.20;4.78;;;;;;;24.96;53.23;100862.72;5032784;27;98852;-71
2022/08/01 04:12:24;;;;;;;5.65;4.72;;;;;;;24.89;53.56;100858.91;5031495;28;97686;-69
2022/08/01 04:14:52;;;;;;;11.32;5.22;;;;;;;25.02;53.35;100864.84;5029170;28;96892;-70
2022/08/01 04:17:19;;;;;;;11.45;7.15;;;;;;;24.93;53.91;100865.75;5032527;28;96990;-72
2022/08/01 04:19:46;;;;;;;9.60;6.90;;;;;;;24.75;54.91;100863.84;5035899;27;99057;-70
2022/08/01 04:22:15;;;;;;;12.07;7.47;;;;;;;24.67;55.23;100866.44;5030722;27;99346;-70
2022/08/01 04:24:43;;;;;;;11.23;7.38;;;;;;;24.35;56.79;100861.28;5028370;28;97110;-70
2022/08/01 04:27:14;;;;;;;11.70;7.60;;;;;;;24.55;55.94;100869.25;5031600;28;96920;-69
2022/08/01 04:29:42;;;;;;;9.25;6.50;;;;;;;24.52;56.38;100874.09;5027317;28;98962;-70
2022/08/01 04:32:14;;;;;;;9.65;6.18;;;;;;;24.74;55.70;100862.16;5033000;28;100237;-70
2022/08/01 04:34:43;;;;;;;11.00;6.60;;;;;;;24.31;57.19;100871.50;5025550;27;96767;-70
2022/08/01 04:37:11;;;;;;;7.78;5.78;;;;;;;24.37;56.87;100872.78;5031362;27;97627;-69
2022/08/01 04:39:42;;;;;;;9.60;6.32;;;;;;;24.57;56.09;100874.50;5032846;28;100629;-70
2022/08/01 04:42:09;;;;;;;9.02;6.15;;;;;;;24.73;55.86;100871.25;5031661;27;98964;-67
2022/08/01 04:44:36;;;;;;;9.27;5.97;;;;;;;24.89;55.59;100885.91;5034078;28;96946;-68
2022/08/01 04:47:05;;;;;;;7.65;6.43;;;;;;;25.03;55.29;100884.63;5031958;28;96863;-67
2022/08/01 04:49:33;;;;;;;7.43;6.38;;;;;;;24.75;55.99;100890.88;5023042;28;98871;-68
2022/08/01 04:52:00;;;;;;;7.57;6.50;;;;;;;25.13;54.86;100895.44;5029054;28;98865;-67
2022/08/01 04:54:27;;;;;;;9.52;6.70;;;;;;;25.21;54.86;100888.31;5025272;28;96748;-68
2022/08/01 04:56:55;;;;;;;10.82;7.65;;;;;;;24.80;56.16;100891.31;5030982;27;96967;-69
2022/08/01 04:59:40;;;;;;;11.35;8.02;;;;;;;24.82;56.19;100892.00;5030627;28;99207;-67
2022/08/01 05:02:07;;;;;;;10.32;7.57;;;;;;;24.18;58.70;100887.91;5028982;27;98838;-69
2022/08/01 05:04:36;;;;;;;9.70;7.88;;;;;;;24.20;58.77;100888.69;5030096;27;97431;-69
2022/08/01 05:07:02;;;;;;;10.48;8.35;;;;;;;24.21;59.18;100886.84;5026789;27;97338;-68
2022/08/01 05:09:30;;;;;;;15.77;7.95;;;;;;;24.45;58.05;100894.56;5029900;27;99356;-68
2022/08/01 05:11:58;;;;;;;9.70;7.63;;;;;;;24.66;57.61;100891.72;5030235;28;99449;-67
2022/08/01 05:14:24;;;;;;;8.70;7.15;;;;;;;24.78;56.85;100893.28;5028840;28;96866;-68
2022/08/01 05:16:51;;;;;;;8.95;7.47;;;;;;;24.57;57.95;100898.81;5028769;28;98567;-67
2022/08/01 05:19:17;;;;;;;10.18;7.47;;;;;;;24.40;58.32;100897.69;5028234;28;101684;-67
2022/08/01 05:21:45;;;;;;;10.52;7.60;;;;;;;24.31;58.61;100894.94;5025904;28;98918;-67
2022/08/01 05:24:12;;;;;;;12.55;7.15;;;;;;;24.26;59.00;100899.91;5028982;28;96839;-67
2022/08/01 05:26:39;;;;;;;9.07;6.88;;;;;;;24.63;57.79;100890.16;5029584;27;96947;-68
2022/08/01 05:29:05;;;;;;;8.48;6.35;;;;;;;24.67;58.17;100898.84;5031523;27;99238;-67
2022/08/01 05:31:33;;;;;;;11.73;7.60;;;;;;;24.51;58.54;100894.84;5029865;28;99366;-67
2022/08/01 05:34:00;;;;;;;15.20;7.18;;;;;;;24.84;57.46;100892.72;5031252;28;97429;-67
2022/08/01 05:36:26;;;;;;;7.45;6.07;;;;;;;24.86;57.54;100898.84;5031999;27;97760;-67
2022/08/01 05:38:54;;;;;;;9.32;6.85;;;;;;;24.89;57.60;100893.16;5031501;28;99172;-67
2022/08/01 05:41:21;;;;;;;16.70;6.90;;;;;;;24.83;57.67;100901.81;5031353;28;99700;-68
2022/08/01 05:43:47;;;;;;;7.82;6.13;;;;;;;25.40;55.52;100904.50;5032830;28;96916;-67
2022/08/01 05:46:13;;;;;;;6.90;5.28;;;;;;;25.67;55.06;100901.03;5031582;28;97128;-67
2022/08/01 05:48:40;;;;;;;8.30;5.60;;;;;;;25.82;54.16;100905.97;5031656;28;98978;-68
2022/08/01 05:51:06;;;;;;;7.10;6.30;;;;;;;25.22;55.83;100908.09;5030488;28;101831;-67
2022/08/01 05:53:34;;;;;;;6.20;5.60;;;;;;;24.92;57.06;100907.28;5031327;28;96967;-67
2022/08/01 05:56:02;;;;;;;7.88;5.85;;;;;;;24.64;57.92;100908.06;5031444;28;97335;-67
2022/08/01 05:58:28;;;;;;;5.82;5.18;;;;;;;24.62;58.14;100910.06;5030542;28;100816;-67
2022/08/01 06:00:54;;;;;;;9.30;5.78;;;;;;;24.95;57.28;100912.38;5030402;27;98679;-67
2022/08/01 06:03:21;;;;;;;9.63;5.32;;;;;;;25.15;56.40;100910.50;5029260;27;96694;-66
2022/08/01 06:05:47;;;;;;;6.35;5.22;;;;;;;25.11;56.29;100916.38;5029976;28;97639;-68
2022/08/01 06:08:14;;;;;;;5.55;5.00;;;;;;;25.28;56.04;100916.47;5031162;27;102496;-68
2022/08/01 06:10:40;;;;;;;7.78;5.60;;;;;;;24.23;59.23;100918.09;5030707;28;98935;-67
2022/08/01 06:13:08;;;;;;;7.50;5.57;;;;;;;24.15;60.21;100914.34;5031156;27;96824;-68
2022/08/01 06:15:35;;;;;;;8.35;5.30;;;;;;;24.38;59.17;100920.41;5031998;27;96970;-66
2022/08/01 06:18:01;;;;;;;8.75;5.40;;;;;;;24.27;59.76;100923.22;5030548;27;99218;-66
2022/08/01 06:20:28;;;;;;;5.75;5.15;;;;;;;24.39;58.71;100916.72;5022901;28;99812;-68
2022/08/01 06:22:54;;;;;;;4.88;4.47;;;;;;;24.63;58.18;100919.88;5031202;28;96828;-67
2022/08/01 06:25:21;;;;;;;5.13;3.95;;;;;;;24.62;58.35;100921.72;5029776;28;97352;-67
2022/08/01 06:27:47;;;;;;;6.80;3.85;;;;;;;24.99;56.94;100929.19;5030809;28;99570;-66
2022/08/01 06:30:15;;;;;;;6.13;3.65;;;;;;;25.05;56.57;100928.63;5029525;28;99228;-68
2022/08/01 06:32:42;;;;;;;3.35;3.05;;;;;;;25.54;54.97;100926.66;5031474;27;98721;-67
2022/08/01 06:35:09;;;;;;;7.13;3.10;;;;;;;25.41;55.52;100927.84;5031398;27;97125;-67
2022/08/01 06:37:35;;;;;;;3.38;2.67;;;;;;;25.65;54.69;100926.56;5029790;27;101819;-67
2022/08/01 06:40:03;;;;;;;4.50;2.58;;;;;;;25.60;54.48;100937.78;5032047;27;97566;-67
2022/08/01 06:42:31;;;;;;;2.80;2.60;;;;;;;25.74;53.71;100929.22;5030528;27;96759;-67
2022/08/01 06:44:57;;;;;;;4.45;2.40;;;;;;;26.05;53.32;100928.97;5029505;28;98492;-67
2022/08/01 06:47:25;;;;;;;2.40;2.20;;;;;;;26.56;51.41;100931.97;5027495;28;99253;-67
2022/08/01 06:49:52;;;;;;;3.55;2.40;;;;;;;26.35;51.69;100939.53;5032031;28;99507;-68
2022/08/01 06:52:18;;;;;;;3.35;2.17;;;;;;;26.47;51.14;100926.63;5029618;27;96638;-68
2022/08/01 06:54:44;;;;;;;8.68;2.25;;;;;;;26.45;51.40;100929.47;5032305;28;96803;-67
2022/08/01 06:57:11;;;;;;;4.53;2.08;;;;;;;26.63;50.69;100934.94;5029976;27;99154;-67
2022/08/01 06:59:37;;;;;;;4.25;1.85;;;;;;;25.96;52.56;100937.97;5031779;28;97506;-67
2022/08/01 07:02:03;;;;;;;2.38;1.92;;;;;;;25.84;52.63;100937.31;5018013;27;97383;-67
2022/08/01 07:04:31;;;;;;;2.92;1.83;;;;;;;25.77;52.75;100937.06;5031771;28;97227;-67
2022/08/01 07:06:58;;;;;;;2.28;1.80;;;;;;;26.30;51.44;100936.41;5029130;27;99266;-70
2022/08/01 07:09:25;;;;;;;1.98;1.75;;;;;;;26.49;51.19;100940.88;5032408;27;99020;-69
2022/08/01 07:11:52;;;;;;;3.50;1.75;;;;;;;26.46;50.91;100933.03;5033130;27;97553;-69
2022/08/01 07:14:19;;;;;;;3.00;2.30;;;;;;;26.29;51.79;100940.13;5031733;28;96907;-69
2022/08/01 07:16:46;;;;;;;8.40;3.08;;;;;;;26.46;51.46;100944.72;5029839;27;99049;-72
2022/08/01 07:19:13;;;;;;;2.30;2.10;;;;;;;26.32;51.82;100939.81;5031307;28;99695;-70
2022/08/01 07:21:40;;;;;;;3.90;2.85;;;;;;;26.84;50.61;100950.91;5028922;28;98446;-68
2022/08/01 07:24:08;;;;;;;4.30;2.05;;;;;;;26.12;52.19;100949.84;5031879;28;97181;-74
2022/08/01 07:26:35;;;;;;;5.43;2.42;;;;;;;26.42;51.52;100940.63;5031474;28;99126;-72
2022/08/01 07:29:02;;;;;;;8.95;2.50;;;;;;;26.61;50.95;100950.50;5031010;28;99186;-70
2022/08/01 07:31:28;;;;;;;4.75;2.20;;;;;;;26.20;51.74;100954.53;5029286;28;97155;-70
2022/08/01 07:33:55;;;;;;;4.03;2.17;;;;;;;26.78;50.73;100946.09;5032048;27;96755;-70
2022/08/01 07:36:21;;;;;;;2.80;2.60;;;;;;;26.52;50.64;100957.66;5029585;27;99031;-71
2022/08/01 07:38:49;;;;;;;3.63;2.22;;;;;;;26.78;50.10;100946.09;5029316;28;99132;-70
2022/08/01 07:41:16;;;;;;;2.40;2.20;;;;;;;27.05;49.27;100948.75;5029284;28;97060;-70
2022/08/01 07:43:42;;;;;;;3.25;2.40;;;;;;;27.02;49.38;100953.66;5030453;28;96831;-70
2022/08/01 07:46:09;;;;;;;2.78;2.58;;;;;;;26.96;49.08;100953.25;5031137;28;97665;-69
2022/08/01 07:48:36;;;;;;;4.28;2.28;;;;;;;27.06;48.82;100955.03;5029416;28;97628;-69
2022/08/01 07:51:02;;;;;;;2.67;2.47;;;;;;;27.17;47.94;100960.22;5028915;28;97077;-71
2022/08/01 07:53:29;;;;;;;2.53;2.33;;;;;;;27.23;47.69;100952.31;5029846;28;97093;-70
2022/08/01 07:55:56;;;;;;;2.88;2.38;;;;;;;27.17;47.44;100968.38;5030577;27;99192;-69
2022/08/01 07:58:23;;;;;;;3.47;2.85;;;;;;;27.13;47.79;100970.53;5028694;27;98791;-71
2022/08/01 08:00:49;;;;;;;3.22;2.95;;;;;;;26.81;48.42;100978.31;5027289;28;97175;-71
2022/08/01 08:03:15;;;;;;;4.00;3.13;;;;;;;26.63;49.29;100980.16;5016219;27;97048;-70
2022/08/01 08:05:42;;;;;;;3.60;3.30;;;;;;;26.45;49.80;100980.94;5022275;27;99435;-70
2022/08/01 08:08:10;;;;;;;3.65;2.72;;;;;;;26.23;50.57;100984.03;5027777;27;97511;-70
2022/08/01 08:10:36;;;;;;;3.63;3.33;;;;;;;26.07;51.28;100989.22;5026659;27;96926;-70
2022/08/01 08:13:06;;;;;;;4.07;3.65;;;;;;;25.78;51.49;100984.78;5027406;27;96880;-70
2022/08/01 08:15:33;;;;;;;4.20;2.90;;;;;;;25.58;52.13;100982.25;5028924;27;99209;-70
2022/08/01 08:17:59;;;;;;;4.07;3.17;;;;;;;25.70;52.04;100972.97;5026665;27;97802;-69
2022/08/01 08:20:27;;;;;;;7.57;2.90;;;;;;;26.29;50.31;100980.75;5027992;27;96924;-70
2022/08/01 08:22:54;;;;;;;3.88;2.47;;;;;;;26.78;48.82;100984.06;5029383;27;97269;-70
2022/08/01 08:25:21;;;;;;;3.33;3.03;;;;;;;26.76;47.94;100991.47;5029447;27;102304;-69
2022/08/01 08:27:48;;;;;;;3.92;3.15;;;;;;;26.85;47.81;100983.25;5030546;28;103639;-70
2022/08/01 08:30:16;;;;;;;3.45;2.80;;;;;;;26.43;48.60;100987.53;5029131;28;96945;-70
2022/08/01 08:32:42;;;;;;;4.32;3.00;;;;;;;26.35;49.19;100990.13;5030691;27;97242;-71
2022/08/01 08:35:09;;;;;;;3.55;2.95;;;;;;;26.34;49.23;100989.28;5031385;27;99093;-70
2022/08/01 08:37:36;;;;;;;6.78;3.83;;;;;;;26.73;48.27;100981.78;5030432;27;99252;-70
2022/08/01 08:40:04;;;;;;;4.57;3.72;;;;;;;26.89;47.67;100990.13;5037275;27;96879;-69
2022/08/01 08:42:35;;;;;;;3.47;2.80;;;;;;;26.63;47.81;100988.28;5031356;27;97590;-70
2022/08/01 08:45:01;;;;;;;3.00;2.67;;;;;;;26.43;48.55;100992.97;5030909;27;99513;-70
2022/08/01 08:47:33;;;;;;;5.15;2.45;;;;;;;26.64;47.85;100995.41;5028790;28;99207;-70
2022/08/01 08:50:02;;;;;;;3.38;2.53;;;;;;;26.75;47.40;100997.91;5035197;27;97068;-70
2022/08/01 08:52:29;;;;;;;5.45;3.35;;;;;;;26.88;47.12;100992.97;5031241;27;97782;-71
2022/08/01 08:54:57;;;;;;;3.05;2.22;;;;;;;26.98;46.73;100992.94;5031726;28;99483;-69
2022/08/01 08:57:24;;;;;;;2.15;1.95;;;;;;;27.42;45.71;100991.13;5030762;27;98842;-70
2022/08/01 08:59:52;;;;;;;2.25;1.90;;;;;;;28.05;43.86;100992.63;5032673;27;97225;-70
2022/08/01 09:02:18;;;;;;;1.85;1.75;;;;;;;27.76;44.20;100990.22;5029667;27;97036;-69
2022/08/01 09:04:48;;;;;;;1.27;1.00;;;;;;;28.30;42.83;100987.31;5029798;27;99163;-70
2022/08/01 09:07:15;;;;;;;4.70;1.10;;;;;;;28.05;42.71;100997.19;5029480;27;100123;-70
2022/08/01 09:09:41;;;;;;;3.55;1.30;;;;;;;28.01;42.33;100995.81;5031253;27;97255;-70
2022/08/01 09:12:08;;;;;;;1.83;1.00;;;;;;;27.40;43.89;100993.13;5029011;28;97445;-70
2022/08/01 09:14:35;;;;;;;1.30;1.10;;;;;;;27.45;44.12;100998.94;5030765;28;99402;-71
2022/08/01 09:17:06;;;;;;;1.90;0.85;;;;;;;27.11;44.87;101001.53;5026295;28;98693;-70
2022/08/01 09:19:38;;;;;;;2.22;1.00;;;;;;;27.34;44.53;101008.19;5026819;27;96866;-70
2022/08/01 09:22:08;;;;;;;1.23;0.90;;;;;;;27.09;45.22;101009.84;5027169;28;96953;-70
2022/08/01 09:24:35;;;;;;;2.55;1.20;;;;;;;27.60;44.40;101013.69;5030272;27;99633;-70
2022/08/01 09:27:16;;;;;;;2.55;1.02;;;;;;;27.84;43.56;101011.16;5026649;27;101567;-70
2022/08/01 09:29:44;;;;;;;0.88;0.80;;;;;;;27.46;43.62;101014.22;5025847;27;98150;-70
2022/08/01 09:32:11;;;;;;;1.20;0.90;;;;;;;27.20;44.81;101011.44;5027461;27;97601;-70
2022/08/01 09:34:37;;;;;;;3.33;1.13;;;;;;;26.89;45.62;101019.09;5021996;27;99194;-70
2022/08/01 09:37:05;;;;;;;1.85;1.00;;;;;;;27.08;45.39;101024.41;5023842;27;98679;-70
2022/08/01 09:39:37;;;;;;;2.10;1.10;;;;;;;27.14;45.43;101023.78;5025629;27;98109;-71
2022/08/01 09:42:21;;;;;;;3.50;1.20;;;;;;;27.20;45.07;101023.16;5023131;27;97220;-69
2022/08/01 09:44:48;;;;;;;3.10;1.80;;;;;;;27.36;44.81;101025.19;5032840;28;98229;-70
2022/08/01 09:47:16;;;;;;;4.40;1.30;;;;;;;26.66;46.66;101034.03;5026870;27;98826;-69
2022/08/01 09:49:44;;;;;;;1.77;1.48;;;;;;;26.54;47.25;101042.38;5023107;27;98610;-70
2022/08/01 09:52:13;;;;;;;1.50;1.40;;;;;;;26.32;47.94;101042.75;5029657;27;97221;-71
2022/08/01 09:54:42;;;;;;;3.22;1.67;;;;;;;26.77;46.86;101053.69;5030605;27;100898;-70
2022/08/01 09:57:10;;;;;;;2.42;1.40;;;;;;;26.74;47.01;101050.41;5029052;27;98874;-70
2022/08/01 09:59:41;;;;;;;2.60;1.23;;;;;;;26.82;46.70;101047.81;5029158;27;97077;-70
2022/08/01 10:02:08;;;;;;;4.40;1.75;;;;;;;26.87;46.58;101048.19;5028633;27;97042;-70
2022/08/01 10:04:35;;;;;;;1.77;1.60;;;;;;;26.67;46.78;101052.88;5031212;27;99324;-71
2022/08/01 10:07:06;;;;;;;3.08;1.42;;;;;;;26.11;48.30;101058.34;5030146;27;98938;-71
2022/08/01 10:09:34;;;;;;;2.83;1.52;;;;;;;26.20;47.95;101061.00;5030504;27;98068;-70
2022/08/01 10:12:03;;;;;;;2.35;1.10;;;;;;;27.07;45.96;101055.22;5026304;27;98901;-70
2022/08/01 10:14:30;;;;;;;1.60;1.50;;;;;;;27.63;44.34;101052.25;5024508;27;98940;-71
2022/08/01 10:16:58;;;;;;;4.05;1.40;;;;;;;27.80;43.76;101058.66;5025436;27;98835;-70
2022/08/01 10:19:27;;;;;;;3.28;1.05;;;;;;;27.39;45.15;101065.53;5026136;28;97792;-70
2022/08/01 10:21:55;;;;;;;1.48;1.33;;;;;;;27.29;45.04;101064.78;5028736;27;98027;-70
2022/08/01 10:24:22;;;;;;;2.58;1.13;;;;;;;27.18;45.08;101070.41;5027192;27;97910;-71
2022/08/01 10:26:51;;;;;;;4.05;1.38;;;;;;;27.20;44.54;101061.13;5027583;27;99246;-70
2022/08/01 10:29:20;;;;;;;0.90;0.90;;;;;;;27.21;44.75;101068.25;5024582;27;97511;-71
2022/08/01 10:31:47;;;;;;;2.60;0.77;;;;;;;27.56;44.14;101066.59;5028812;27;96807;-70
2022/08/01 10:34:17;;;;;;;7.10;1.30;;;;;;;27.52;44.37;101063.31;5029980;27;98896;-70
2022/08/01 10:36:45;;;;;;;6.00;1.15;;;;;;;27.23;45.09;101070.84;5031850;27;97528;-70
2022/08/01 10:39:12;;;;;;;2.75;1.13;;;;;;;26.98;45.70;101072.41;5026173;27;96925;-70
2022/08/01 10:41:39;;;;;;;3.17;1.00;;;;;;;27.04;45.69;101074.53;5030476;27;97247;-70
2022/08/01 10:44:07;;;;;;;3.58;0.95;;;;;;;26.91;46.00;101074.03;5028878;27;97830;-71
2022/08/01 10:46:38;;;;;;;3.72;1.00;;;;;;;27.09;45.75;101077.63;5028888;27;97597;-70
2022/08/01 10:49:09;;;;;;;2.53;1.20;;;;;;;27.40;44.94;101072.69;5029490;27;96731;-70
2022/08/01 10:51:38;;;;;;;3.50;0.90;;;;;;;27.50;44.35;101072.63;5029589;27;97395;-70
2022/08/01 10:54:06;;;;;;;4.03;0.90;;;;;;;26.46;46.56;101072.06;5029103;27;99272;-71
2022/08/01 10:56:40;;;;;;;1.13;1.02;;;;;;;26.80;46.33;101076.91;5030481;27;98922;-71
2022/08/01 10:59:07;;;;;;;4.88;1.42;;;;;;;27.14;45.26;101069.88;5029248;27;97591;-70
2022/08/01 11:01:34;;;;;;;3.05;0.98;;;;;;;27.67;44.29;101071.78;5027804;27;96863;-71
2022/08/01 11:04:09;;;;;;;1.58;0.80;;;;;;;28.03;43.15;101070.69;5029761;27;99163;-71
2022/08/01 11:06:53;;;;;;;1.50;1.00;;;;;;;28.28;42.47;101076.34;5029172;27;99062;-70
2022/08/01 11:09:29;;;;;;;2.13;1.00;;;;;;;28.60;42.38;101076.50;5028169;27;97193;-71
2022/08/01 11:12:03;;;;;;;1.75;0.93;;;;;;;28.63;41.97;101078.88;5026308;27;98722;-70
2022/08/01 11:14:30;;;;;;;1.92;0.98;;;;;;;29.00;41.23;101086.72;5028470;27;98815;-70
2022/08/01 11:16:57;;;;;;;3.30;1.00;;;;;;;28.88;41.68;101077.16;5026082;27;98845;-70
2022/08/01 11:19:24;;;;;;;0.93;0.93;;;;;;;28.62;41.83;101088.03;5025408;27;96794;-71
2022/08/01 11:22:03;;;;;;;1.90;1.10;;;;;;;28.15;42.83;101093.06;5025347;27;96999;-70
2022/08/01 11:24:57;;;;;;;0.60;0.60;;;;;;;27.58;44.42;101092.56;5026631;27;98778;-70
2022/08/01 11:27:27;;;;;;;3.15;0.90;;;;;;;27.41;45.65;101111.53;5026281;27;102411;-70
2022/08/01 11:30:25;;;;;;;2.67;1.13;;;;;;;27.44;46.04;101108.53;5029358;27;97197;-70